Austerlitz, New York
Current Conditions -  °F | °C
As of 1:54 AM on Friday 28 Nov 2014 (Local Time) from KPSF Reporting Station
Overcast Overcast  
Wind Chill: 16°   Ceiling: 6000
Heat Index: 25°   Visibility: 10mi
Dew Point: 22°   Wind: 9mph
Humidity: 88%   Direction: 290°WNW
Pressure: 29.96"   Gusts: NA
Location:  42.31°N, 73.47°W
Report Text: KPSF 280654Z AUTO 29008KT 10SM FEW011 OVC060 M04/M06 A2996 RMK AO2 SLP161 T10391056
Loading
Personal Weather Stations






























Interactive Weather Map New forecast layout! Learn more

10-Day Weather Forecast

Advertisements
Track Severe Weather on mobile